メインページ
METAR-TAF:

METAR-TAF

空港 :

リガ, ラトビア

リガ国際空港

緯度: 56-55N, 経度: 023-58E, 海抜: 10m

現時点の気象観測

当レポートは27分前の15:20(UTC)に作成
北/北西の風 13kt
気温 10°C
湿度 71%
気圧 1025 hPa
視程10km以上
1,500メートル以下は雲なし、積乱雲なし

METAR: EVRA 191520Z 33013KT CAVOK 10/05 Q1025 NOSIG

時間: 18:47 (15:47 UTC)

予報

当レポートは1時間44分前の14:03(UTC)に作成
予報は19日の 15時(UTC)から 20日の 15時(UTC)まで有効
北西の風 9kt
視程10km以上
1,500メートル以下は雲なし、積乱雲なし
19日の 21時(UTC)から 19日の 23時(UTC)まで徐々に
変向風 2kt
19日の 23時(UTC)から 20日の 03時(UTC)まで一時的に
視程: 3000m
20日の 03時(UTC)から 20日の 06時(UTC)まで一時的に
視程: 0700m
高度100ftの千切れ雲あり
20日の 06時(UTC)から 20日の 08時(UTC)まで徐々に
西の風 9kt

TAF: EVRA 191403Z 1915/2015 32009KT CAVOK BECMG 1921/1923 VRB02KT TEMPO 1923/2003 3000 BR TEMPO 2003/2006 0700 FG BKN001 BECMG 2006/2008 27009KT

4,000以上の空港の気象観測と天気予報(METAR報とTAF報)

利用可能な観測所は地図上に黄色い丸と赤い丸で示す。

丸の上にカーソルを重ねると観測所名を参照できる。

次にクリックすると気象観測と天気予報を参照できる。

マップの切り替え:黒色「×」印の緑ボタンをクリックして拡大、「-」印の緑ボタンをクリックして縮小、緑色の三角印をクリックして隣りの地図に切り替え


METAR-TAF: